Aérodrome :
LOGIN :

S'inscrire | Disclaimer

   EN    FR    IT 

 










Légende :    VFR   VFR Marginal   IFR   IFR Intensif   IFR Très Intensif
Visi : 
Plafond : 
>= 8 km
>= 3000ft
5 à 8 km
1000 à 3000 ft
1500m à 5 km
500 à 1000 ft
800 à 1500m
200 à 500 ft
< 800m
< 200 ft
Symboles :   Orages  Brouillard  Fortes neiges  Fortes précipitations  Vent > 20 kt
SIGMETs :   Divers  Orages  Givrage  Turbulence  Onde Orograph.  Cendres Volcan.







- Altitude de l'aérodrome : 782 ft
- Code IATA : BGY


LIME - Orio al Serio International - Bergamo

DERNIER METAR :
  • 211850Z VRB01KT 9999 -TSRA SCT030CB SCT090 16/15 Q1011 NOSIG

METARs EXPIRÉS :
  • 211820Z 32002KT 9999 -TSRA SCT030CB SCT090 17/14 Q1010 NOSIG
  • 211750Z VRB02KT 9999 -TSRA SCT030CB SCT099 17/15 Q1010 NOSIG
  • 211720Z 36003KT 280V080 9999 -TSRA SCT030CB SCT050 18/16 Q1009 MOD TURB IN APCH NOSIG
  • 211650Z 03004KT 340V070 9999 -TSRA SCT030CB SCT050 19/16 Q1009 NOSIG
  • 211620Z 08005KT 020V130 9999 -TSRA SCT030CB SCT050 20/15 Q1009 NOSIG
  • 211550Z 20003KT 120V240 9999 -TSRA SCT030CB SCT050 22/13 Q1008 NOSIG

TAF TAF LIME
Valide du 21 à 18h jusqu'au 22 à 18h UTC


211700Z 2118/2218 23007KT 9999 SCT040
TEMPO 2118/2122 TSRA
Pas de NOTAMs connus pour ce terrain.
1 SIGMET publié pour la FIR Milano (LIMM) :
 
Orages fréquents
LIMM SIGMET 1 VALID 211800/212000 LIIP
LIMM MILANO FIR FRQ TS OBS WI N4630 E00921 - N4607 E00908 - N4547 E00903 - N4623 E00822 - N4601 E00805 - N4537 E00813 - N4500 E00916 - N4424 E01112 - N4442 E01154 - N4508 E01153 - N4526 E01213 - N4626 E01023 - N4636 E01008 - N4610 E01006 - N4616 E00935 - N4630 E00921 MOV ESE NC=



MET'MAP, la Météo Aéronautique d'un coup d'oeil ! - Copyright ORBIFLY Décembre 2007 - Disclaimer

ORBIFLY MET'MAP TEAM :

Programmation & Développement : Alexandra Zaïnal
Conception & Développement : Baudouin d'Aumeries
Co-Programmation & Développement : Marc-Olivier Méhu
Soutien technique & logistique : Manuel Goepfert

Contact : metmap@orbifly.com




SOURCES & CREDITS :

   NOAA